ADDS METAR Data INFO
IDs: Format: Raw Decoded Include TAF

Data at: 0039 UTC 23 Oct 2017

KHSI 222353Z AUTO 18005KT 10SM CLR 16/M03 A3000 RMK AO2 SLP162 T01611028 10206 20161 56013
KHSI 222253Z AUTO 23005KT 10SM CLR 19/M04 A3001 RMK AO2 SLP163 T01941039
KHSI 222153Z AUTO 26012KT 10SM CLR 20/M03 A3002 RMK AO2 SLP167 T02001033
KHSI 222053Z AUTO 26013G20KT 10SM CLR 20/M05 A3004 RMK AO2 SLP170 T02001050 56023
KHSI 221953Z AUTO 27019G23KT 10SM CLR 20/M06 A3006 RMK AO2 PK WND 25026/1907 SLP178 T02001056
KHSI 221853Z AUTO 27015G25KT 10SM CLR 19/M05 A3008 RMK AO2 SLP185 T01891050
KHSI 221753Z AUTO 24009KT 10SM CLR 18/M04 A3011 RMK AO2 SLP196 T01831044 10183 20017 58016
KHSI 221653Z AUTO 25012KT 10SM CLR 16/M03 A3013 RMK AO2 SLP206 T01611033
KHSI 221553Z AUTO 23005KT 10SM CLR 13/01 A3015 RMK AO2 SLP213 T01280006
KHSI 221453Z AUTO 24005KT 10SM CLR 08/01 A3016 RMK AO2 SLP218 T00830006 53006
KHSI 221353Z AUTO 24003KT 10SM CLR 03/M01 A3014 RMK AO2 SLP217 T00331006
KHSI 221253Z AUTO 24003KT 10SM CLR 02/M02 A3012 RMK AO2 SLP211 T00221022
KHSI 221153Z AUTO 00000KT 10SM CLR 02/M01 A3014 RMK AO2 SLP214 T00171011 10050 20017 51019
KHSI 221053Z AUTO 27004KT 10SM CLR 02/M01 A3012 RMK AO2 SLP205 T00221011
KHSI 220953Z AUTO 23004KT 10SM CLR 03/M01 A3011 RMK AO2 SLP200 T00331006
KHSI 220853Z AUTO 24005KT 10SM CLR 04/01 A3008 RMK AO2 SLP189 T00390006 53006
KHSI 220753Z AUTO 26005KT 10SM CLR 04/01 A3006 RMK AO2 SLP181 T00440011
KHSI 220653Z AUTO 28003KT 10SM CLR 04/01 A3004 RMK AO2 SLP177 T00440011
KHSI 220553Z AUTO 00000KT 10SM CLR 04/02 A3006 RMK AO2 SLP182 T00440022 10106 20039 402060039 53014
KHSI 220453Z AUTO 00000KT 10SM CLR 06/02 A3003 RMK AO2 SLP171 T00560022
KHSI 220353Z AUTO 24003KT 10SM CLR 06/03 A3002 RMK AO2 SLP165 T00610028
KHSI 220253Z AUTO 24006KT 10SM CLR 07/03 A3002 RMK AO2 PRESRR SLP162 T00670033 51016
KHSI 220153Z AUTO 00000KT 10SM CLR 07/03 A2999 RMK AO2 SLP154 T00670028
KHSI 220053Z AUTO 13003KT 8SM CLR 08/03 A2999 RMK AO2 SLP153 T00780028
KHSI 212353Z AUTO 33005KT 10SM CLR 11/03 A2997 RMK AO2 SLP142 T01060028 10161 20106 53019
KHSI 212253Z AUTO 33015KT 10SM SCT100 13/03 A2994 RMK AO2 SLP131 T01280028
KHSI 212153Z AUTO 33018G25KT 10SM CLR 13/03 A2991 RMK AO2 PK WND 31027/2055 SLP121 T01280033
KHSI 212053Z AUTO 32019G25KT 10SM BKN095 13/03 A2991 RMK AO2 PK WND 31030/2015 SLP120 T01330033 53040
KHSI 211953Z AUTO 34021KT 10SM OVC065 16/04 A2985 RMK AO2 PK WND 32032/1911 SLP100 T01560044
KHSI 211853Z AUTO 34023G32KT 10SM OVC055 16/04 A2982 RMK AO2 PK WND 33033/1754 SLP088 T01560044
KHSI 211753Z AUTO 32027G43KT 10SM OVC041 14/04 A2978 RMK AO2 PK WND 32043/1747 SLP077 T01440039 10200 20144 53061
KHSI 211653Z AUTO 33025G37KT 10SM SCT037 17/05 A2972 RMK AO2 PK WND 32037/1645 WSHFT 1540 SLP055 T01670050
KHSI 211600Z AUTO 31025G34KT 10SM FEW030 SCT035 18/09 A2966 RMK AO2 PK WND 32034/1557 WSHFT 1540 PRESRR T01830094
KHSI 211553Z AUTO 30021G25KT 10SM SCT035 19/12 A2964 RMK AO2 WSHFT 1538 SLP025 T01940117
KHSI 211501Z AUTO 23011G21KT 10SM SCT022 BKN030 BKN035 19/13 A2960 RMK AO2 T01890133
KHSI 211453Z AUTO 22015G22KT 10SM SCT022 BKN028 OVC034 19/14 A2959 RMK AO2 PK WND 21027/1432 SLP008 T01890144 51012
KHSI 211353Z AUTO 19016G25KT 10SM FEW033 19/15 A2956 RMK AO2 PK WND 18026/1322 SLP996 T01940150
KHSI 211331Z AUTO 19016G26KT 10SM FEW021 SCT026 BKN034 19/15 A2955 RMK AO2 PK WND 18026/1322 T01890150
KHSI 211253Z AUTO 19011G19KT 10SM BKN026 OVC033 19/16 A2956 RMK AO2 SLP995 T01890156